MRPV Airport Information

Runway Information
Runway 09 Length 5250 ft width 60 ft
Elevation 3238 ft Threshold 200 ft Heading 95
Runway 27 Length 5250 ft Width 60 ft
Elevation 3287 ft Threshold ft Heading 275
Airport Frequencies
Type GND Name GND Frequency 121.7 MHZ
Type RDO Name COCO RDO Frequency 126.8 MHZ
Type TWR Name PAVAS TWR Frequency 118.3 MHZ
Airport Navaids
Airport Weather Information & NOTAM
ADDS - METARS form results

(1744 UTC 19 August 2022)
Data provider http://aviationweather.gov/metar/data/
 
METAR text: MRPV 191700Z 08017KT CAVOK 26/16 A3000 NOSIG
Conditions at: MRPV (TOBIAS BOLANO , CR) observed 1700 UTC 19 August 2022
Temperature: 26.0°C (79°F)
Dewpoint: 16.0°C (61°F) [RH = 54%]
Pressure (altimeter): 30.00 inches Hg (1016.0 mb)
Winds: from the E (80 degrees) at 20 MPH (17 knots; 8.7 m/s)
Visibility: 6 or more miles (10+ km)
Ceiling: ceiling and visibility are OK
Clouds: unknown
Weather: no significant weather observed at this time

Forecast for: COR
Text: TAF COR MRPV 191715Z 1918/2018 08012KT 9999 FEW040 TX28/1919Z TN18/2010Z
Forecast period: 1800 UTC 19 August 2022 to 1800 UTC 20 August 2022
Forecast type: FROM: standard forecast or significant change
Winds: from the E (80 degrees) at 14 MPH (12 knots; 6.2 m/s)
Visibility: 6 or more miles (10+ km)
Ceiling: at least 12,000 feet AGL
Clouds: few clouds at 4000 feet AGL
Weather: no significant weather forecast for this period